sensor_id;sensor_type;location;lat;lon;timestamp;pressure;altitude;pressure_sealevel;temperature;humidity
62789;BME280;66401;42.016;21.454;2023-07-31T00:00:35;97797.97;;;24.88;59.27
62789;BME280;66401;42.016;21.454;2023-07-31T00:03:01;97785.06;;;24.81;59.39
62789;BME280;66401;42.016;21.454;2023-07-31T00:05:26;97790.66;;;24.79;59.88
62789;BME280;66401;42.016;21.454;2023-07-31T00:07:52;97774.06;;;24.69;58.65
62789;BME280;66401;42.016;21.454;2023-07-31T00:10:19;97776.03;;;24.36;59.36
62789;BME280;66401;42.016;21.454;2023-07-31T00:12:45;97791.50;;;24.34;59.67
62789;BME280;66401;42.016;21.454;2023-07-31T00:15:10;97797.22;;;24.41;60.09
62789;BME280;66401;42.016;21.454;2023-07-31T00:17:36;97789.63;;;24.48;60.16
62789;BME280;66401;42.016;21.454;2023-07-31T00:20:02;97784.63;;;24.60;59.59
62789;BME280;66401;42.016;21.454;2023-07-31T00:22:28;97784.06;;;24.63;59.28
62789;BME280;66401;42.016;21.454;2023-07-31T00:24:53;97794.69;;;24.63;60.26
62789;BME280;66401;42.016;21.454;2023-07-31T00:27:19;97792.13;;;24.25;61.99
62789;BME280;66401;42.016;21.454;2023-07-31T00:29:44;97777.94;;;24.30;60.64
62789;BME280;66401;42.016;21.454;2023-07-31T00:32:10;97791.19;;;24.35;60.18
62789;BME280;66401;42.016;21.454;2023-07-31T00:34:35;97775.91;;;24.41;60.51
62789;BME280;66401;42.016;21.454;2023-07-31T00:37:01;97784.53;;;24.51;60.00
62789;BME280;66401;42.016;21.454;2023-07-31T00:39:27;97778.25;;;24.61;59.52
62789;BME280;66401;42.016;21.454;2023-07-31T00:41:52;97771.91;;;24.57;60.49
62789;BME280;66401;42.016;21.454;2023-07-31T00:44:18;97762.72;;;24.49;60.48
62789;BME280;66401;42.016;21.454;2023-07-31T00:46:44;97760.47;;;24.43;61.69
62789;BME280;66401;42.016;21.454;2023-07-31T00:49:10;97767.97;;;24.54;59.01
62789;BME280;66401;42.016;21.454;2023-07-31T00:51:36;97750.38;;;24.40;59.90
62789;BME280;66401;42.016;21.454;2023-07-31T00:54:02;97763.50;;;24.50;59.81
62789;BME280;66401;42.016;21.454;2023-07-31T00:56:28;97758.53;;;24.30;60.13
62789;BME280;66401;42.016;21.454;2023-07-31T00:58:55;97759.94;;;24.41;59.92
62789;BME280;66401;42.016;21.454;2023-07-31T01:01:20;97763.06;;;24.29;61.08
62789;BME280;66401;42.016;21.454;2023-07-31T01:03:47;97757.03;;;24.23;60.93
62789;BME280;66401;42.016;21.454;2023-07-31T01:06:48;97751.56;;;24.34;59.79
62789;BME280;66401;42.016;21.454;2023-07-31T01:12:03;97761.94;;;24.16;61.74
62789;BME280;66401;42.016;21.454;2023-07-31T01:14:29;97763.09;;;24.10;61.96
62789;BME280;66401;42.016;21.454;2023-07-31T01:19:25;97762.34;;;23.91;63.03
62789;BME280;66401;42.016;21.454;2023-07-31T01:27:12;97775.09;;;23.56;65.46
62789;BME280;66401;42.016;21.454;2023-07-31T01:30:08;97781.53;;;23.31;65.99
62789;BME280;66401;42.016;21.454;2023-07-31T01:32:40;97785.69;;;23.19;67.67
62789;BME280;66401;42.016;21.454;2023-07-31T01:35:07;97790.09;;;23.04;68.69
62789;BME280;66401;42.016;21.454;2023-07-31T01:37:34;97787.50;;;22.99;68.82
62789;BME280;66401;42.016;21.454;2023-07-31T01:39:59;97801.34;;;22.96;69.21
62789;BME280;66401;42.016;21.454;2023-07-31T01:42:25;97800.97;;;23.08;67.74
62789;BME280;66401;42.016;21.454;2023-07-31T01:44:50;97808.72;;;23.23;67.03
62789;BME280;66401;42.016;21.454;2023-07-31T01:47:16;97807.81;;;23.33;66.40
62789;BME280;66401;42.016;21.454;2023-07-31T01:49:41;97812.63;;;23.31;66.92
62789;BME280;66401;42.016;21.454;2023-07-31T01:52:07;97808.97;;;23.27;67.31
62789;BME280;66401;42.016;21.454;2023-07-31T01:54:32;97803.53;;;23.37;66.66
62789;BME280;66401;42.016;21.454;2023-07-31T01:56:59;97800.28;;;23.40;66.22
62789;BME280;66401;42.016;21.454;2023-07-31T01:59:24;97811.50;;;23.13;66.80
62789;BME280;66401;42.016;21.454;2023-07-31T02:01:50;97822.50;;;23.25;66.77
62789;BME280;66401;42.016;21.454;2023-07-31T02:04:15;97823.09;;;23.22;67.03
62789;BME280;66401;42.016;21.454;2023-07-31T02:06:41;97829.16;;;23.28;67.76
62789;BME280;66401;42.016;21.454;2023-07-31T02:09:07;97826.03;;;23.21;67.62
62789;BME280;66401;42.016;21.454;2023-07-31T02:11:33;97824.34;;;23.06;68.33
62789;BME280;66401;42.016;21.454;2023-07-31T02:13:58;97830.03;;;22.94;68.87
62789;BME280;66401;42.016;21.454;2023-07-31T02:16:24;97826.28;;;22.71;69.33
62789;BME280;66401;42.016;21.454;2023-07-31T02:18:49;97835.25;;;22.75;69.34
62789;BME280;66401;42.016;21.454;2023-07-31T02:21:15;97842.34;;;22.85;68.96
62789;BME280;66401;42.016;21.454;2023-07-31T02:23:40;97846.75;;;22.66;69.42
62789;BME280;66401;42.016;21.454;2023-07-31T02:26:06;97846.91;;;22.79;69.18
62789;BME280;66401;42.016;21.454;2023-07-31T02:28:31;97851.41;;;22.84;68.97
62789;BME280;66401;42.016;21.454;2023-07-31T02:30:57;97840.25;;;22.82;68.30
62789;BME280;66401;42.016;21.454;2023-07-31T02:33:22;97851.91;;;22.86;68.21
62789;BME280;66401;42.016;21.454;2023-07-31T02:35:49;97849.28;;;22.81;68.26
62789;BME280;66401;42.016;21.454;2023-07-31T02:38:15;97844.06;;;22.71;68.58
62789;BME280;66401;42.016;21.454;2023-07-31T02:40:40;97859.81;;;22.62;69.28
62789;BME280;66401;42.016;21.454;2023-07-31T02:43:08;97859.53;;;22.64;69.44
62789;BME280;66401;42.016;21.454;2023-07-31T02:45:34;97852.16;;;22.55;68.88
62789;BME280;66401;42.016;21.454;2023-07-31T02:48:00;97872.88;;;22.59;68.78
62789;BME280;66401;42.016;21.454;2023-07-31T02:50:25;97868.66;;;22.52;68.51
62789;BME280;66401;42.016;21.454;2023-07-31T02:52:52;97874.66;;;22.63;68.64
62789;BME280;66401;42.016;21.454;2023-07-31T02:55:18;97885.09;;;22.54;68.72
62789;BME280;66401;42.016;21.454;2023-07-31T02:57:43;97887.19;;;22.57;68.35
62789;BME280;66401;42.016;21.454;2023-07-31T03:00:09;97892.03;;;22.50;68.08
62789;BME280;66401;42.016;21.454;2023-07-31T03:02:35;97890.47;;;22.44;69.18
62789;BME280;66401;42.016;21.454;2023-07-31T03:05:00;97892.56;;;22.47;68.51
62789;BME280;66401;42.016;21.454;2023-07-31T03:07:26;97901.56;;;22.51;68.22
62789;BME280;66401;42.016;21.454;2023-07-31T03:09:51;97893.28;;;22.24;70.06
62789;BME280;66401;42.016;21.454;2023-07-31T03:12:17;97896.88;;;22.38;69.23
62789;BME280;66401;42.016;21.454;2023-07-31T03:14:43;97899.88;;;22.32;69.75
62789;BME280;66401;42.016;21.454;2023-07-31T03:17:08;97904.84;;;22.38;69.83
62789;BME280;66401;42.016;21.454;2023-07-31T03:19:34;97886.09;;;22.30;69.72
62789;BME280;66401;42.016;21.454;2023-07-31T03:21:59;97905.47;;;22.30;69.60
62789;BME280;66401;42.016;21.454;2023-07-31T03:24:25;97903.25;;;22.37;69.69
62789;BME280;66401;42.016;21.454;2023-07-31T03:26:51;97914.84;;;22.51;68.84
62789;BME280;66401;42.016;21.454;2023-07-31T03:29:16;97913.72;;;22.57;69.08
62789;BME280;66401;42.016;21.454;2023-07-31T03:31:42;97906.28;;;22.60;69.39
62789;BME280;66401;42.016;21.454;2023-07-31T03:34:08;97918.22;;;22.57;69.19
62789;BME280;66401;42.016;21.454;2023-07-31T03:36:33;97915.28;;;22.64;70.00
62789;BME280;66401;42.016;21.454;2023-07-31T03:38:59;97915.69;;;22.76;68.89
62789;BME280;66401;42.016;21.454;2023-07-31T03:41:24;97907.16;;;22.84;68.50
62789;BME280;66401;42.016;21.454;2023-07-31T03:43:51;97904.31;;;22.41;71.08
62789;BME280;66401;42.016;21.454;2023-07-31T03:46:22;97918.78;;;22.54;70.34
62789;BME280;66401;42.016;21.454;2023-07-31T03:48:48;97917.34;;;22.67;69.46
62789;BME280;66401;42.016;21.454;2023-07-31T03:51:13;97927.06;;;22.81;69.26
62789;BME280;66401;42.016;21.454;2023-07-31T03:53:39;97921.97;;;22.90;69.40
62789;BME280;66401;42.016;21.454;2023-07-31T03:56:05;97927.78;;;22.97;67.91
62789;BME280;66401;42.016;21.454;2023-07-31T03:58:30;97925.63;;;22.99;67.60
62789;BME280;66401;42.016;21.454;2023-07-31T04:00:55;97932.88;;;22.83;69.67
62789;BME280;66401;42.016;21.454;2023-07-31T04:03:21;97927.91;;;22.77;69.48
62789;BME280;66401;42.016;21.454;2023-07-31T04:05:46;97936.03;;;22.56;69.69
62789;BME280;66401;42.016;21.454;2023-07-31T04:08:12;97930.59;;;22.72;69.28
62789;BME280;66401;42.016;21.454;2023-07-31T04:10:38;97942.44;;;22.90;68.00
62789;BME280;66401;42.016;21.454;2023-07-31T04:13:03;97943.41;;;22.99;67.87
62789;BME280;66401;42.016;21.454;2023-07-31T04:15:29;97942.09;;;22.96;68.37
62789;BME280;66401;42.016;21.454;2023-07-31T04:17:54;97944.16;;;22.70;69.70
62789;BME280;66401;42.016;21.454;2023-07-31T04:20:20;97954.13;;;22.83;68.91
62789;BME280;66401;42.016;21.454;2023-07-31T04:22:45;97946.97;;;22.89;68.98
62789;BME280;66401;42.016;21.454;2023-07-31T04:25:11;97951.56;;;23.07;67.92
62789;BME280;66401;42.016;21.454;2023-07-31T04:27:36;97955.72;;;23.19;67.63
62789;BME280;66401;42.016;21.454;2023-07-31T04:30:02;97955.75;;;23.13;68.03
62789;BME280;66401;42.016;21.454;2023-07-31T04:32:28;97956.09;;;22.68;70.54
62789;BME280;66401;42.016;21.454;2023-07-31T04:34:55;97960.47;;;22.53;70.53
62789;BME280;66401;42.016;21.454;2023-07-31T04:37:20;97963.47;;;22.76;70.26
62789;BME280;66401;42.016;21.454;2023-07-31T04:39:46;97963.97;;;22.83;69.92
62789;BME280;66401;42.016;21.454;2023-07-31T04:42:11;97969.78;;;22.90;69.44
62789;BME280;66401;42.016;21.454;2023-07-31T04:44:37;97970.47;;;23.01;69.10
62789;BME280;66401;42.016;21.454;2023-07-31T04:47:02;97966.25;;;23.00;68.87
62789;BME280;66401;42.016;21.454;2023-07-31T04:49:28;97966.72;;;22.68;70.58
62789;BME280;66401;42.016;21.454;2023-07-31T04:51:54;97958.59;;;22.93;69.33
62789;BME280;66401;42.016;21.454;2023-07-31T04:54:19;97968.03;;;23.09;68.34
62789;BME280;66401;42.016;21.454;2023-07-31T04:56:45;97964.28;;;23.10;69.49
62789;BME280;66401;42.016;21.454;2023-07-31T04:59:10;97967.13;;;22.90;70.05
62789;BME280;66401;42.016;21.454;2023-07-31T05:01:36;97964.53;;;22.80;70.10
62789;BME280;66401;42.016;21.454;2023-07-31T05:04:01;97965.69;;;23.03;69.03
62789;BME280;66401;42.016;21.454;2023-07-31T05:06:27;97972.97;;;23.16;68.87
62789;BME280;66401;42.016;21.454;2023-07-31T05:08:53;97972.34;;;23.00;70.02
62789;BME280;66401;42.016;21.454;2023-07-31T05:11:18;97972.38;;;22.95;69.09
62789;BME280;66401;42.016;21.454;2023-07-31T05:13:44;97953.84;;;22.90;68.69
62789;BME280;66401;42.016;21.454;2023-07-31T05:16:09;97979.44;;;23.10;68.07
62789;BME280;66401;42.016;21.454;2023-07-31T05:18:35;97983.97;;;23.33;67.51
62789;BME280;66401;42.016;21.454;2023-07-31T05:21:00;97982.66;;;23.36;67.16
62789;BME280;66401;42.016;21.454;2023-07-31T05:23:26;97981.97;;;23.49;67.09
62789;BME280;66401;42.016;21.454;2023-07-31T05:25:51;97980.72;;;23.41;66.86
62789;BME280;66401;42.016;21.454;2023-07-31T05:28:17;97969.88;;;23.38;66.96
62789;BME280;66401;42.016;21.454;2023-07-31T05:30:42;97990.66;;;23.60;66.22
62789;BME280;66401;42.016;21.454;2023-07-31T05:33:08;97994.84;;;23.66;66.79
62789;BME280;66401;42.016;21.454;2023-07-31T05:35:33;98002.94;;;23.80;65.86
62789;BME280;66401;42.016;21.454;2023-07-31T05:37:59;98005.31;;;23.81;65.19
62789;BME280;66401;42.016;21.454;2023-07-31T05:40:24;97995.34;;;23.92;64.88
62789;BME280;66401;42.016;21.454;2023-07-31T05:42:50;97999.81;;;23.96;64.39
62789;BME280;66401;42.016;21.454;2023-07-31T05:45:15;97991.50;;;24.03;64.98
62789;BME280;66401;42.016;21.454;2023-07-31T05:47:41;97996.50;;;23.86;65.16
62789;BME280;66401;42.016;21.454;2023-07-31T05:50:07;97999.81;;;23.96;64.69
62789;BME280;66401;42.016;21.454;2023-07-31T05:52:32;97999.56;;;23.93;64.39
62789;BME280;66401;42.016;21.454;2023-07-31T05:54:58;98003.47;;;24.01;64.49
62789;BME280;66401;42.016;21.454;2023-07-31T05:57:23;98000.09;;;23.95;64.98
62789;BME280;66401;42.016;21.454;2023-07-31T05:59:49;98002.34;;;24.07;64.54
62789;BME280;66401;42.016;21.454;2023-07-31T06:02:14;98010.47;;;24.15;63.51
62789;BME280;66401;42.016;21.454;2023-07-31T06:04:40;97997.47;;;24.14;63.75
62789;BME280;66401;42.016;21.454;2023-07-31T06:07:05;98000.97;;;24.33;63.17
62789;BME280;66401;42.016;21.454;2023-07-31T06:09:31;98002.03;;;24.51;63.11
62789;BME280;66401;42.016;21.454;2023-07-31T06:11:56;97996.13;;;24.73;61.71
62789;BME280;66401;42.016;21.454;2023-07-31T06:14:22;98001.81;;;24.99;60.66
62789;BME280;66401;42.016;21.454;2023-07-31T06:16:48;98010.59;;;25.18;58.89
62789;BME280;66401;42.016;21.454;2023-07-31T06:19:13;98009.44;;;25.24;59.94
62789;BME280;66401;42.016;21.454;2023-07-31T06:21:39;97990.34;;;25.17;56.51
62789;BME280;66401;42.016;21.454;2023-07-31T06:24:08;97996.81;;;25.44;57.50
62789;BME280;66401;42.016;21.454;2023-07-31T06:26:33;98002.16;;;25.57;57.05
62789;BME280;66401;42.016;21.454;2023-07-31T06:28:59;97996.34;;;25.69;56.43
62789;BME280;66401;42.016;21.454;2023-07-31T06:31:24;97990.66;;;25.89;56.06
62789;BME280;66401;42.016;21.454;2023-07-31T06:33:51;97994.19;;;25.99;55.19
62789;BME280;66401;42.016;21.454;2023-07-31T06:36:17;97993.09;;;26.00;53.61
62789;BME280;66401;42.016;21.454;2023-07-31T06:38:42;98000.78;;;26.15;53.67
62789;BME280;66401;42.016;21.454;2023-07-31T06:41:07;98008.88;;;26.23;52.88
62789;BME280;66401;42.016;21.454;2023-07-31T06:43:33;97992.44;;;26.30;52.15
62789;BME280;66401;42.016;21.454;2023-07-31T06:46:04;97990.56;;;26.44;51.95
62789;BME280;66401;42.016;21.454;2023-07-31T06:48:30;98002.31;;;26.43;51.71
62789;BME280;66401;42.016;21.454;2023-07-31T06:50:55;97993.28;;;26.53;51.54
62789;BME280;66401;42.016;21.454;2023-07-31T06:53:21;97986.94;;;26.63;50.69
62789;BME280;66401;42.016;21.454;2023-07-31T06:55:46;97988.41;;;26.69;47.89
62789;BME280;66401;42.016;21.454;2023-07-31T06:58:13;97991.38;;;26.67;48.49
62789;BME280;66401;42.016;21.454;2023-07-31T07:00:39;97989.34;;;26.73;46.96
62789;BME280;66401;42.016;21.454;2023-07-31T07:03:04;97981.22;;;26.78;48.71
62789;BME280;66401;42.016;21.454;2023-07-31T07:05:30;97987.53;;;26.82;46.54
62789;BME280;66401;42.016;21.454;2023-07-31T07:07:55;97981.84;;;26.97;48.56
62789;BME280;66401;42.016;21.454;2023-07-31T07:10:21;97983.41;;;26.98;48.58
62789;BME280;66401;42.016;21.454;2023-07-31T07:12:46;97983.31;;;27.03;47.25
62789;BME280;66401;42.016;21.454;2023-07-31T07:15:12;97985.22;;;27.12;46.22
62789;BME280;66401;42.016;21.454;2023-07-31T07:17:37;97991.28;;;27.26;46.68
62789;BME280;66401;42.016;21.454;2023-07-31T07:20:03;97985.00;;;27.22;46.18
62789;BME280;66401;42.016;21.454;2023-07-31T07:22:29;97985.69;;;27.36;47.43
62789;BME280;66401;42.016;21.454;2023-07-31T07:24:54;97987.63;;;27.44;45.21
62789;BME280;66401;42.016;21.454;2023-07-31T07:27:20;97997.69;;;27.47;44.90
62789;BME280;66401;42.016;21.454;2023-07-31T07:29:46;97989.66;;;27.47;44.95
62789;BME280;66401;42.016;21.454;2023-07-31T07:32:12;97988.13;;;27.55;45.07
62789;BME280;66401;42.016;21.454;2023-07-31T07:34:37;97999.38;;;27.65;45.06
62789;BME280;66401;42.016;21.454;2023-07-31T07:37:03;97983.47;;;27.69;44.88
62789;BME280;66401;42.016;21.454;2023-07-31T07:39:29;97994.84;;;27.75;44.27
62789;BME280;66401;42.016;21.454;2023-07-31T07:41:54;97996.28;;;27.81;45.73
62789;BME280;66401;42.016;21.454;2023-07-31T07:44:20;97990.63;;;27.91;42.95
62789;BME280;66401;42.016;21.454;2023-07-31T07:46:45;97987.81;;;27.96;44.65
62789;BME280;66401;42.016;21.454;2023-07-31T07:49:11;97986.56;;;28.02;43.40
62789;BME280;66401;42.016;21.454;2023-07-31T07:51:37;97992.72;;;28.11;43.58
62789;BME280;66401;42.016;21.454;2023-07-31T07:54:02;97992.13;;;28.32;42.21
62789;BME280;66401;42.016;21.454;2023-07-31T07:56:28;97988.47;;;28.28;42.59
62789;BME280;66401;42.016;21.454;2023-07-31T07:58:54;97977.31;;;28.34;42.09
62789;BME280;66401;42.016;21.454;2023-07-31T08:01:20;97982.53;;;28.39;42.86
62789;BME280;66401;42.016;21.454;2023-07-31T08:03:47;97974.66;;;28.34;41.80
62789;BME280;66401;42.016;21.454;2023-07-31T08:06:12;97975.28;;;28.40;41.49
62789;BME280;66401;42.016;21.454;2023-07-31T08:08:38;97981.25;;;28.37;40.79
62789;BME280;66401;42.016;21.454;2023-07-31T08:11:04;97975.44;;;28.43;41.45
62789;BME280;66401;42.016;21.454;2023-07-31T08:13:30;97980.66;;;28.57;42.21
62789;BME280;66401;42.016;21.454;2023-07-31T08:15:55;97974.19;;;28.58;41.20
62789;BME280;66401;42.016;21.454;2023-07-31T08:18:21;97971.19;;;28.60;40.88
62789;BME280;66401;42.016;21.454;2023-07-31T08:20:47;97970.06;;;28.78;40.19
62789;BME280;66401;42.016;21.454;2023-07-31T08:23:12;97969.91;;;28.92;40.74
62789;BME280;66401;42.016;21.454;2023-07-31T08:25:38;97968.63;;;28.80;39.70
62789;BME280;66401;42.016;21.454;2023-07-31T08:28:05;97967.88;;;28.71;40.41
62789;BME280;66401;42.016;21.454;2023-07-31T08:30:30;97968.50;;;28.77;40.15
62789;BME280;66401;42.016;21.454;2023-07-31T08:32:56;97960.91;;;28.79;40.48
62789;BME280;66401;42.016;21.454;2023-07-31T08:35:23;97960.75;;;28.75;39.06
62789;BME280;66401;42.016;21.454;2023-07-31T08:37:49;97965.81;;;28.86;39.12
62789;BME280;66401;42.016;21.454;2023-07-31T08:40:14;97967.53;;;28.82;37.22
62789;BME280;66401;42.016;21.454;2023-07-31T08:42:48;97954.28;;;28.85;38.90
62789;BME280;66401;42.016;21.454;2023-07-31T08:45:15;97959.50;;;28.99;39.76
62789;BME280;66401;42.016;21.454;2023-07-31T08:47:51;97948.41;;;29.09;37.87
62789;BME280;66401;42.016;21.454;2023-07-31T08:50:18;97953.00;;;29.08;37.74
62789;BME280;66401;42.016;21.454;2023-07-31T08:52:46;97947.41;;;29.22;36.79
62789;BME280;66401;42.016;21.454;2023-07-31T08:55:12;97948.53;;;29.21;36.98
62789;BME280;66401;42.016;21.454;2023-07-31T08:57:38;97947.25;;;29.27;36.79
62789;BME280;66401;42.016;21.454;2023-07-31T09:00:06;97948.38;;;29.26;35.59
62789;BME280;66401;42.016;21.454;2023-07-31T09:02:43;97956.19;;;29.49;36.99
62789;BME280;66401;42.016;21.454;2023-07-31T09:05:10;97943.63;;;29.23;35.06
62789;BME280;66401;42.016;21.454;2023-07-31T09:07:36;97956.03;;;29.45;36.06
62789;BME280;66401;42.016;21.454;2023-07-31T09:10:03;97955.81;;;29.59;37.26
62789;BME280;66401;42.016;21.454;2023-07-31T09:12:29;97955.69;;;29.55;36.01
62789;BME280;66401;42.016;21.454;2023-07-31T09:14:57;97951.72;;;29.53;34.93
62789;BME280;66401;42.016;21.454;2023-07-31T09:17:29;97950.81;;;29.49;33.99
62789;BME280;66401;42.016;21.454;2023-07-31T09:19:56;97952.03;;;29.60;35.71
62789;BME280;66401;42.016;21.454;2023-07-31T09:22:33;97944.16;;;29.84;35.13
62789;BME280;66401;42.016;21.454;2023-07-31T09:30:20;97941.25;;;30.19;34.43
62789;BME280;66401;42.016;21.454;2023-07-31T09:32:47;97938.84;;;30.26;33.21
62789;BME280;66401;42.016;21.454;2023-07-31T09:35:18;97938.72;;;30.23;34.80
62789;BME280;66401;42.016;21.454;2023-07-31T09:37:55;97940.63;;;30.22;34.97
62789;BME280;66401;42.016;21.454;2023-07-31T09:40:37;97933.31;;;30.43;34.74
62789;BME280;66401;42.016;21.454;2023-07-31T09:43:05;97928.63;;;30.73;33.71
62789;BME280;66401;42.016;21.454;2023-07-31T09:45:34;97936.84;;;30.56;34.04
62789;BME280;66401;42.016;21.454;2023-07-31T09:48:02;97929.91;;;30.34;35.47
62789;BME280;66401;42.016;21.454;2023-07-31T09:50:28;97926.06;;;30.23;34.33
62789;BME280;66401;42.016;21.454;2023-07-31T09:52:54;97929.97;;;30.05;34.76
62789;BME280;66401;42.016;21.454;2023-07-31T09:55:20;97915.25;;;30.11;35.80
62789;BME280;66401;42.016;21.454;2023-07-31T09:57:47;97904.16;;;30.33;36.17
62789;BME280;66401;42.016;21.454;2023-07-31T10:00:16;97918.00;;;30.56;35.44
62789;BME280;66401;42.016;21.454;2023-07-31T10:02:45;97916.56;;;30.59;34.07
62789;BME280;66401;42.016;21.454;2023-07-31T10:05:13;97918.09;;;30.47;33.95
62789;BME280;66401;42.016;21.454;2023-07-31T10:07:43;97907.50;;;30.51;34.29
62789;BME280;66401;42.016;21.454;2023-07-31T10:10:11;97902.78;;;30.81;36.52
62789;BME280;66401;42.016;21.454;2023-07-31T10:12:37;97908.84;;;30.57;33.87
62789;BME280;66401;42.016;21.454;2023-07-31T10:15:03;97896.41;;;30.53;33.93
62789;BME280;66401;42.016;21.454;2023-07-31T10:17:30;97905.25;;;30.86;37.83
62789;BME280;66401;42.016;21.454;2023-07-31T10:19:58;97885.00;;;31.01;35.13
62789;BME280;66401;42.016;21.454;2023-07-31T10:22:29;97870.09;;;31.03;34.39
62789;BME280;66401;42.016;21.454;2023-07-31T10:24:58;97871.09;;;30.99;33.86
62789;BME280;66401;42.016;21.454;2023-07-31T10:27:24;97898.28;;;31.30;32.77
62789;BME280;66401;42.016;21.454;2023-07-31T10:29:50;97891.97;;;31.51;33.62
62789;BME280;66401;42.016;21.454;2023-07-31T10:32:17;97884.56;;;31.60;32.49
62789;BME280;66401;42.016;21.454;2023-07-31T10:34:43;97886.69;;;31.54;32.05
62789;BME280;66401;42.016;21.454;2023-07-31T10:39:57;97880.53;;;31.54;33.93
62789;BME280;66401;42.016;21.454;2023-07-31T10:42:34;97881.56;;;31.49;30.66
62789;BME280;66401;42.016;21.454;2023-07-31T10:45:09;97882.91;;;31.31;31.13
62789;BME280;66401;42.016;21.454;2023-07-31T10:47:43;97870.75;;;31.13;31.94
62789;BME280;66401;42.016;21.454;2023-07-31T10:50:19;97873.94;;;31.27;31.66
62789;BME280;66401;42.016;21.454;2023-07-31T10:52:51;97872.03;;;31.27;31.80
62789;BME280;66401;42.016;21.454;2023-07-31T10:55:27;97876.84;;;31.58;33.08
62789;BME280;66401;42.016;21.454;2023-07-31T10:57:55;97862.25;;;31.59;33.92
62789;BME280;66401;42.016;21.454;2023-07-31T11:00:29;97866.63;;;31.76;31.78
62789;BME280;66401;42.016;21.454;2023-07-31T11:03:06;97850.31;;;31.73;30.50
62789;BME280;66401;42.016;21.454;2023-07-31T11:08:26;97847.53;;;32.09;31.12
62789;BME280;66401;42.016;21.454;2023-07-31T11:13:30;97857.19;;;31.70;33.82
62789;BME280;66401;42.016;21.454;2023-07-31T11:15:56;97855.84;;;31.52;33.55
62789;BME280;66401;42.016;21.454;2023-07-31T11:18:22;97852.63;;;31.46;33.04
62789;BME280;66401;42.016;21.454;2023-07-31T11:20:47;97853.97;;;31.40;34.55
62789;BME280;66401;42.016;21.454;2023-07-31T11:23:16;97848.34;;;31.57;31.77
62789;BME280;66401;42.016;21.454;2023-07-31T11:25:42;97847.44;;;31.66;31.67
62789;BME280;66401;42.016;21.454;2023-07-31T11:28:16;97844.41;;;31.67;30.91
62789;BME280;66401;42.016;21.454;2023-07-31T11:30:43;97848.34;;;31.57;31.22
62789;BME280;66401;42.016;21.454;2023-07-31T11:33:11;97845.88;;;31.52;31.94
62789;BME280;66401;42.016;21.454;2023-07-31T11:35:46;97843.22;;;31.40;32.57
62789;BME280;66401;42.016;21.454;2023-07-31T11:38:29;97845.69;;;31.21;35.29
62789;BME280;66401;42.016;21.454;2023-07-31T11:40:57;97839.16;;;31.10;36.52
62789;BME280;66401;42.016;21.454;2023-07-31T11:43:23;97838.28;;;31.18;34.79
62789;BME280;66401;42.016;21.454;2023-07-31T11:45:56;97829.09;;;31.31;33.06
62789;BME280;66401;42.016;21.454;2023-07-31T11:48:29;97827.94;;;31.44;33.93
62789;BME280;66401;42.016;21.454;2023-07-31T11:51:06;97830.16;;;31.54;33.46
62789;BME280;66401;42.016;21.454;2023-07-31T11:53:53;97836.50;;;31.46;33.67
62789;BME280;66401;42.016;21.454;2023-07-31T11:56:21;97828.88;;;31.24;35.55
62789;BME280;66401;42.016;21.454;2023-07-31T11:58:52;97825.47;;;31.15;32.76
62789;BME280;66401;42.016;21.454;2023-07-31T12:01:19;97826.06;;;31.08;34.20
62789;BME280;66401;42.016;21.454;2023-07-31T12:03:47;97822.34;;;31.00;35.90
62789;BME280;66401;42.016;21.454;2023-07-31T12:06:12;97815.63;;;30.94;35.20
62789;BME280;66401;42.016;21.454;2023-07-31T12:08:38;97812.94;;;30.82;36.02
62789;BME280;66401;42.016;21.454;2023-07-31T12:11:05;97806.66;;;31.02;36.88
62789;BME280;66401;42.016;21.454;2023-07-31T12:13:32;97812.03;;;31.02;35.89
62789;BME280;66401;42.016;21.454;2023-07-31T12:16:00;97816.88;;;31.09;35.85
62789;BME280;66401;42.016;21.454;2023-07-31T12:18:27;97802.63;;;31.09;37.26
62789;BME280;66401;42.016;21.454;2023-07-31T12:21:01;97806.22;;;31.13;35.57
62789;BME280;66401;42.016;21.454;2023-07-31T12:23:31;97792.31;;;31.11;35.69
62789;BME280;66401;42.016;21.454;2023-07-31T12:28:26;97791.75;;;31.29;36.90
62789;BME280;66401;42.016;21.454;2023-07-31T12:30:57;97787.38;;;31.25;34.56
62789;BME280;66401;42.016;21.454;2023-07-31T12:33:24;97776.63;;;31.00;36.51
62789;BME280;66401;42.016;21.454;2023-07-31T12:35:49;97790.06;;;31.13;36.91
62789;BME280;66401;42.016;21.454;2023-07-31T12:38:15;97783.47;;;31.10;36.23
62789;BME280;66401;42.016;21.454;2023-07-31T12:40:41;97782.88;;;31.17;37.32
62789;BME280;66401;42.016;21.454;2023-07-31T12:43:08;97792.41;;;31.26;36.67
62789;BME280;66401;42.016;21.454;2023-07-31T12:45:34;97786.91;;;31.35;36.19
62789;BME280;66401;42.016;21.454;2023-07-31T12:48:01;97782.44;;;31.39;37.51
62789;BME280;66401;42.016;21.454;2023-07-31T12:50:26;97787.72;;;31.23;35.03
62789;BME280;66401;42.016;21.454;2023-07-31T12:52:57;97773.59;;;31.26;35.04
62789;BME280;66401;42.016;21.454;2023-07-31T12:55:23;97780.09;;;31.25;34.66
62789;BME280;66401;42.016;21.454;2023-07-31T12:57:50;97772.38;;;31.24;35.51
62789;BME280;66401;42.016;21.454;2023-07-31T13:00:15;97761.47;;;31.32;35.90
62789;BME280;66401;42.016;21.454;2023-07-31T13:02:41;97767.44;;;31.26;34.41
62789;BME280;66401;42.016;21.454;2023-07-31T13:05:07;97761.81;;;31.06;33.76
62789;BME280;66401;42.016;21.454;2023-07-31T13:07:32;97764.72;;;31.14;35.37
62789;BME280;66401;42.016;21.454;2023-07-31T13:09:58;97748.06;;;31.08;33.61
62789;BME280;66401;42.016;21.454;2023-07-31T13:12:23;97749.94;;;31.08;33.66
62789;BME280;66401;42.016;21.454;2023-07-31T13:14:50;97758.22;;;31.15;33.42